createdAt,value
2018-09-26T00:00:09.532Z,5.28
2018-09-26T00:01:09.527Z,5.48
2018-09-26T00:02:09.514Z,5.40
2018-09-26T00:03:09.508Z,5.32
2018-09-26T00:04:09.499Z,5.28
2018-09-26T00:05:09.494Z,5.28
2018-09-26T00:06:09.484Z,5.27
2018-09-26T00:07:09.476Z,5.37
2018-09-26T00:08:09.470Z,5.43
2018-09-26T00:09:09.457Z,5.34
2018-09-26T00:10:09.451Z,5.37
2018-09-26T00:11:09.446Z,5.43
2018-09-26T00:12:09.437Z,5.43
2018-09-26T00:13:09.429Z,5.27
2018-09-26T00:14:09.420Z,5.27
2018-09-26T00:15:09.412Z,5.20
2018-09-26T00:16:09.411Z,5.16
2018-09-26T00:17:09.397Z,5.16
2018-09-26T00:18:09.386Z,5.16
2018-09-26T00:19:09.376Z,5.04
2018-09-26T00:20:09.373Z,5.09
2018-09-26T00:21:09.367Z,5.09
2018-09-26T00:22:09.354Z,5.07
2018-09-26T00:23:09.351Z,5.14
2018-09-26T00:24:09.339Z,5.16
2018-09-26T00:25:09.331Z,5.09
2018-09-26T00:26:09.325Z,5.12
2018-09-26T00:27:09.322Z,5.02
2018-09-26T00:28:09.304Z,5.09
2018-09-26T00:29:09.296Z,5.02
2018-09-26T00:30:09.296Z,4.95
2018-09-26T00:31:09.281Z,4.99
2018-09-26T00:32:09.290Z,5.05
2018-09-26T00:33:09.267Z,5.12
2018-09-26T00:34:09.253Z,4.99
2018-09-26T00:35:09.248Z,4.99
2018-09-26T00:36:09.360Z,4.99
2018-09-26T00:37:09.232Z,4.91
2018-09-26T00:38:09.220Z,4.89
2018-09-26T00:39:09.214Z,4.88
2018-09-26T00:40:09.205Z,4.95
2018-09-26T00:41:09.197Z,4.88
2018-09-26T00:42:09.188Z,4.91
2018-09-26T00:43:09.208Z,4.88
2018-09-26T00:44:09.175Z,4.88
2018-09-26T00:45:09.168Z,4.80
2018-09-26T00:46:09.159Z,4.75
2018-09-26T00:47:09.150Z,4.76
2018-09-26T00:48:09.141Z,4.79
2018-09-26T00:49:09.140Z,4.70
2018-09-26T00:50:09.126Z,4.69
2018-09-26T00:51:09.118Z,4.67
2018-09-26T00:52:09.107Z,4.64
2018-09-26T00:53:09.100Z,4.62
2018-09-26T00:54:09.091Z,4.62
2018-09-26T00:55:09.080Z,4.65
2018-09-26T00:56:09.076Z,4.59
2018-09-26T00:57:09.066Z,4.61
2018-09-26T00:58:09.062Z,4.55
2018-09-26T00:59:09.048Z,4.59
2018-09-26T01:00:09.039Z,4.59
2018-09-26T01:01:09.052Z,4.59
2018-09-26T01:02:09.057Z,4.59
2018-09-26T01:03:09.018Z,4.58
2018-09-26T01:04:09.005Z,4.58
2018-09-26T01:05:08.996Z,4.64
2018-09-26T01:06:08.989Z,4.61
2018-09-26T01:07:08.983Z,4.57
2018-09-26T01:08:08.980Z,4.58
2018-09-26T01:09:08.965Z,4.57
2018-09-26T01:10:08.956Z,4.44
2018-09-26T01:11:08.948Z,4.52
2018-09-26T01:12:08.941Z,4.58
2018-09-26T01:13:08.933Z,4.61
2018-09-26T01:14:08.923Z,4.55
2018-09-26T01:15:08.914Z,4.64
2018-09-26T01:16:08.909Z,4.59
2018-09-26T01:17:08.899Z,4.54
2018-09-26T01:18:08.887Z,4.46
2018-09-26T01:19:08.882Z,4.46
2018-09-26T01:20:08.883Z,4.44
2018-09-26T01:21:08.864Z,4.51
2018-09-26T01:22:08.853Z,4.54
2018-09-26T01:23:08.843Z,4.50
2018-09-26T01:24:08.835Z,4.54
2018-09-26T01:25:08.873Z,4.52
2018-09-26T01:26:08.818Z,4.44
2018-09-26T01:27:08.809Z,4.50
2018-09-26T01:28:08.802Z,4.46
2018-09-26T01:29:08.798Z,4.40
2018-09-26T02:06:07.102Z,4.06
2018-09-26T02:07:07.104Z,4.10
2018-09-26T02:09:51.560Z,4.14
2018-09-26T02:10:51.522Z,4.04
2018-09-26T02:12:44.491Z,4.01
2018-09-26T02:13:44.456Z,3.89
2018-09-26T02:15:37.454Z,3.94
2018-09-26T02:16:37.438Z,3.88
2018-09-26T02:18:30.393Z,3.86
2018-09-26T02:19:30.363Z,3.83
2018-09-26T02:21:23.276Z,3.88
2018-09-26T02:22:23.255Z,3.78
2018-09-26T02:24:16.199Z,3.80
2018-09-26T02:25:16.191Z,3.68
2018-09-26T02:27:09.078Z,3.68
2018-09-26T02:28:09.047Z,3.64
2018-09-26T02:31:01.980Z,3.60
2018-09-26T02:32:54.993Z,3.54
2018-09-26T02:33:54.965Z,3.47
2018-09-26T02:35:47.903Z,3.49
2018-09-26T02:36:47.890Z,3.46
2018-09-26T02:38:40.798Z,3.46
2018-09-26T02:39:40.768Z,3.47
2018-09-26T02:41:33.741Z,3.52
2018-09-26T02:42:33.729Z,3.52
2018-09-26T02:44:26.674Z,3.46
2018-09-26T02:45:26.644Z,3.47
2018-09-26T02:47:19.642Z,3.49
2018-09-26T02:48:19.630Z,3.50
2018-09-26T02:50:12.585Z,3.47
2018-09-26T02:51:12.556Z,3.49
2018-09-26T02:53:05.463Z,3.47
2018-09-26T02:54:05.440Z,3.36
2018-09-26T02:55:58.420Z,3.34
2018-09-26T02:56:58.392Z,3.28
2018-09-26T02:58:51.352Z,3.34
2018-09-26T02:59:51.320Z,3.31
2018-09-26T03:01:44.326Z,3.31
2018-09-26T03:02:44.304Z,3.39
2018-09-26T03:04:37.246Z,3.31
2018-09-26T03:05:37.225Z,3.20
2018-09-26T03:07:30.222Z,3.28
2018-09-26T03:08:30.206Z,3.27
2018-09-26T03:10:23.170Z,3.28
2018-09-26T03:11:23.134Z,3.21
2018-09-26T03:13:16.027Z,3.24
2018-09-26T03:14:16.006Z,3.12
2018-09-26T03:16:09.024Z,3.06
2018-09-26T03:17:08.966Z,3.16
2018-09-26T03:19:01.916Z,3.09
2018-09-26T03:20:01.891Z,3.13
2018-09-26T03:21:54.799Z,2.98
2018-09-26T03:22:54.764Z,2.98
2018-09-26T03:24:47.740Z,2.97
2018-09-26T03:25:47.714Z,2.82
2018-09-26T03:27:40.601Z,2.81
2018-09-26T03:28:40.584Z,2.81
2018-09-26T03:30:33.533Z,2.84
2018-09-26T03:31:33.506Z,2.79
2018-09-26T03:33:26.405Z,2.67
2018-09-26T03:34:26.386Z,2.67
2018-09-26T03:36:19.370Z,2.73
2018-09-26T03:37:19.341Z,2.69
2018-09-26T03:39:12.294Z,2.71
2018-09-26T03:40:12.261Z,2.61
2018-09-26T03:42:05.151Z,2.71
2018-09-26T03:43:05.134Z,2.71
2018-09-26T03:44:58.134Z,3.00
2018-09-26T03:45:58.097Z,2.97
2018-09-26T03:47:51.040Z,3.00
2018-09-26T03:48:51.021Z,2.79
2018-09-26T03:50:44.007Z,2.82
2018-09-26T03:51:43.981Z,2.76
2018-09-26T03:53:36.776Z,2.81
2018-09-26T03:54:36.761Z,2.84
2018-09-26T03:56:29.742Z,2.85
2018-09-26T03:57:29.699Z,2.85
2018-09-26T03:59:22.663Z,2.84
2018-09-26T04:00:22.632Z,2.97
2018-09-26T04:02:15.527Z,2.87
2018-09-26T04:03:15.513Z,2.88
2018-09-26T04:05:08.514Z,2.70
2018-09-26T04:06:08.459Z,2.67
2018-09-26T04:08:01.898Z,2.61
2018-09-26T04:09:01.398Z,2.58
2018-09-26T04:10:54.308Z,2.70
2018-09-26T04:11:54.270Z,2.85
2018-09-26T04:13:47.158Z,2.81
2018-09-26T04:14:47.139Z,2.87
2018-09-26T04:16:40.094Z,2.85
2018-09-26T04:17:40.073Z,2.92
2018-09-26T04:19:33.038Z,2.82
2018-09-26T04:20:33.034Z,2.79
2018-09-26T04:22:25.925Z,2.74
2018-09-26T04:23:25.897Z,2.67
2018-09-26T04:25:19.798Z,2.74
2018-09-26T04:26:19.875Z,2.69
2018-09-26T04:28:12.724Z,2.73
2018-09-26T04:29:12.708Z,2.70
2018-09-26T04:31:06.127Z,2.71
2018-09-26T04:32:06.108Z,2.66
2018-09-26T04:33:59.112Z,2.63
2018-09-26T04:34:59.023Z,2.56
2018-09-26T04:36:51.926Z,2.52
2018-09-26T04:37:51.896Z,2.49
2018-09-26T04:39:44.848Z,2.63
2018-09-26T04:40:44.811Z,2.63
2018-09-26T04:42:37.729Z,2.48
2018-09-26T04:43:37.708Z,2.44
2018-09-26T04:45:30.665Z,2.44
2018-09-26T04:46:30.676Z,2.48
2018-09-26T04:48:23.593Z,2.41
2018-09-26T04:49:23.570Z,2.33
2018-09-26T04:51:16.475Z,2.37
2018-09-26T04:52:16.445Z,2.22
2018-09-26T04:54:09.418Z,2.31
2018-09-26T04:55:09.399Z,2.33
2018-09-26T04:57:02.295Z,2.28
2018-09-26T04:58:02.349Z,2.17
2018-09-26T04:59:55.199Z,2.20
2018-09-26T05:00:55.231Z,2.23
2018-09-26T05:02:48.186Z,2.28
2018-09-26T05:03:48.152Z,2.22
2018-09-26T05:05:40.958Z,2.20
2018-09-26T05:06:40.946Z,2.16
2018-09-26T05:08:33.870Z,2.19
2018-09-26T05:09:33.852Z,2.22
2018-09-26T05:11:26.765Z,2.16
2018-09-26T05:12:26.737Z,2.17
2018-09-26T05:14:19.672Z,2.15
2018-09-26T05:15:19.647Z,2.15
2018-09-26T05:18:03.640Z,2.17
2018-09-26T05:19:03.628Z,2.17
2018-09-26T05:20:56.522Z,2.19
2018-09-26T05:21:56.500Z,2.22
2018-09-26T05:23:49.425Z,2.26
2018-09-26T05:24:49.402Z,2.17
2018-09-26T05:26:42.313Z,2.33
2018-09-26T05:27:42.301Z,2.33
2018-09-26T05:29:35.286Z,2.28
2018-09-26T05:30:35.221Z,2.34
2018-09-26T05:32:28.187Z,2.34
2018-09-26T05:33:28.191Z,2.34
2018-09-26T05:35:21.072Z,2.40
2018-09-26T05:36:21.056Z,2.41
2018-09-26T05:38:14.011Z,2.33
2018-09-26T05:39:13.982Z,2.35
2018-09-26T05:41:06.906Z,2.38
2018-09-26T05:42:06.872Z,2.63
2018-09-26T05:44:50.905Z,2.74
2018-09-26T05:45:50.876Z,2.91
2018-09-26T05:48:35.451Z,3.03
2018-09-26T05:49:35.348Z,3.06
2018-09-26T05:51:28.258Z,3.09
2018-09-26T05:52:28.234Z,3.24
2018-09-26T05:54:21.152Z,3.49
2018-09-26T05:55:21.137Z,3.54
2018-09-26T05:57:14.072Z,3.78
2018-09-26T05:58:14.046Z,3.85
2018-09-26T06:00:06.975Z,4.06
2018-09-26T06:01:06.958Z,4.06
2018-09-26T06:02:59.868Z,4.19
2018-09-26T06:03:59.840Z,4.39
2018-09-26T06:05:52.764Z,4.55
2018-09-26T06:06:52.746Z,4.79
2018-09-26T06:08:45.679Z,4.94
2018-09-26T06:09:45.652Z,5.01
2018-09-26T06:11:38.600Z,5.07
2018-09-26T06:12:38.565Z,5.19
2018-09-26T06:14:31.481Z,5.74
2018-09-26T06:15:31.459Z,6.10
2018-09-26T06:17:24.386Z,6.94
2018-09-26T06:18:24.369Z,7.13
2018-09-26T06:20:17.266Z,7.63
2018-09-26T06:21:17.247Z,7.82
2018-09-26T06:23:10.163Z,8.08
2018-09-26T06:24:10.134Z,8.14
2018-09-26T06:26:03.047Z,8.12
2018-09-26T06:27:03.037Z,8.32
2018-09-26T06:28:55.952Z,8.40
2018-09-26T06:29:55.927Z,8.26
2018-09-26T06:31:48.852Z,8.68
2018-09-26T06:32:48.833Z,8.83
2018-09-26T06:34:41.755Z,8.83
2018-09-26T06:35:41.741Z,9.15
2018-09-26T06:37:34.683Z,9.27
2018-09-26T06:38:34.653Z,8.83
2018-09-26T06:40:27.623Z,9.25
2018-09-26T06:41:27.553Z,9.78
2018-09-26T06:43:20.463Z,9.99
2018-09-26T06:44:20.446Z,10.15
2018-09-26T06:46:13.387Z,10.44
2018-09-26T06:47:13.352Z,10.76
2018-09-26T06:49:06.279Z,10.65
2018-09-26T06:50:06.254Z,10.53
2018-09-26T06:51:59.166Z,10.58
2018-09-26T06:52:59.152Z,10.12
2018-09-26T06:54:52.074Z,10.09
2018-09-26T06:55:52.065Z,10.30
2018-09-26T06:57:44.989Z,10.09
2018-09-26T06:58:44.966Z,9.82
2018-09-26T07:00:37.884Z,10.36
2018-09-26T07:01:37.872Z,10.32
2018-09-26T07:03:30.784Z,10.58
2018-09-26T07:04:30.774Z,10.40
2018-09-26T07:06:23.684Z,11.43
2018-09-26T07:07:23.664Z,11.25
2018-09-26T07:10:07.651Z,12.08
2018-09-26T07:11:07.632Z,12.04
2018-09-26T07:13:00.592Z,12.62
2018-09-26T07:14:00.565Z,12.84
2018-09-26T07:15:53.498Z,14.35
2018-09-26T07:16:53.484Z,14.93
2018-09-26T07:18:46.456Z,14.99
2018-09-26T07:19:46.440Z,14.72
2018-09-26T07:21:41.437Z,13.73
2018-09-26T07:22:40.360Z,12.59
2018-09-26T07:24:33.290Z,13.17
2018-09-26T07:25:33.270Z,13.20
2018-09-26T07:27:26.207Z,13.36
2018-09-26T07:28:26.191Z,13.33
2018-09-26T07:30:19.131Z,13.52
2018-09-26T07:31:19.169Z,13.67
2018-09-26T07:33:12.101Z,14.24
2018-09-26T07:34:12.103Z,14.87
2018-09-26T07:36:05.000Z,16.23
2018-09-26T07:37:04.991Z,17.38
2018-09-26T07:38:57.930Z,18.97
2018-09-26T07:39:57.915Z,19.79
2018-09-26T07:41:50.851Z,19.98
2018-09-26T07:42:50.852Z,20.28
2018-09-26T07:44:43.825Z,18.97
2018-09-26T07:45:43.805Z,18.86
2018-09-26T07:47:36.723Z,17.74
2018-09-26T07:48:36.707Z,17.64
2018-09-26T07:50:29.662Z,18.50
2018-09-26T07:51:29.661Z,18.61
2018-09-26T07:53:22.633Z,19.10
2018-09-26T07:54:22.623Z,19.61
2018-09-26T07:56:15.577Z,20.77
2018-09-26T07:57:15.570Z,21.29
2018-09-26T07:58:15.574Z,21.61
2018-09-26T07:59:15.680Z,20.56
2018-09-26T08:00:15.587Z,20.05
2018-09-26T08:01:15.595Z,19.15
2018-09-26T08:02:15.595Z,19.48
2018-09-26T08:03:15.610Z,19.73
2018-09-26T08:04:15.624Z,20.02
2018-09-26T08:05:15.620Z,20.43
2018-09-26T08:06:15.622Z,19.68
2018-09-26T08:07:15.627Z,19.46
2018-09-26T08:08:15.635Z,19.76
2018-09-26T08:09:15.646Z,19.80
2018-09-26T08:10:15.647Z,19.78
2018-09-26T08:11:15.663Z,19.79
2018-09-26T08:12:15.660Z,20.21
2018-09-26T08:13:15.668Z,20.30
2018-09-26T08:14:15.675Z,20.18
2018-09-26T08:15:15.686Z,20.90
2018-09-26T08:16:15.685Z,20.80
2018-09-26T08:17:15.691Z,20.20
2018-09-26T08:18:15.820Z,20.89
2018-09-26T08:19:15.713Z,21.11
2018-09-26T08:20:15.709Z,20.20
2018-09-26T08:21:15.716Z,20.43
2018-09-26T08:22:15.722Z,19.57
2018-09-26T08:23:15.733Z,19.95
2018-09-26T08:24:15.793Z,19.73
2018-09-26T08:25:15.747Z,18.77
2018-09-26T08:26:15.749Z,18.59
2018-09-26T08:27:15.757Z,18.40
2018-09-26T08:28:15.764Z,18.97
2018-09-26T08:29:15.763Z,19.05
2018-09-26T08:30:15.779Z,18.43
2018-09-26T08:31:15.784Z,18.72
2018-09-26T08:32:15.788Z,18.44
2018-09-26T08:33:15.794Z,19.11
2018-09-26T08:34:15.801Z,19.17
2018-09-26T08:35:15.810Z,18.77
2018-09-26T08:36:15.817Z,18.82
2018-09-26T08:37:15.827Z,19.50
2018-09-26T08:38:15.837Z,19.58
2018-09-26T08:39:15.838Z,19.29
2018-09-26T08:40:15.847Z,19.60
2018-09-26T08:41:15.852Z,20.02
2018-09-26T08:42:15.863Z,20.90
2018-09-26T08:43:15.865Z,21.44
2018-09-26T08:44:15.875Z,20.50
2018-09-26T08:45:15.886Z,20.59
2018-09-26T08:46:15.890Z,20.77
2018-09-26T08:47:15.899Z,21.27
2018-09-26T08:48:15.907Z,21.64
2018-09-26T08:49:15.911Z,21.41
2018-09-26T08:50:15.921Z,21.35
2018-09-26T08:51:15.923Z,21.36
2018-09-26T08:52:15.934Z,20.76
2018-09-26T08:53:15.944Z,20.46
2018-09-26T08:54:15.952Z,20.05
2018-09-26T08:55:16.020Z,20.46
2018-09-26T08:56:15.965Z,21.02
2018-09-26T08:57:15.969Z,21.39
2018-09-26T08:58:15.978Z,21.24
2018-09-26T08:59:15.987Z,21.42
2018-09-26T09:00:15.997Z,20.35
2018-09-26T09:01:16.005Z,20.23
2018-09-26T09:02:16.011Z,19.57
2018-09-26T09:03:16.019Z,19.42
2018-09-26T09:04:16.028Z,19.31
2018-09-26T09:05:16.035Z,19.42
2018-09-26T09:06:16.049Z,18.64
2018-09-26T09:07:16.049Z,17.78
2018-09-26T09:08:16.058Z,17.66
2018-09-26T09:09:16.066Z,17.71
2018-09-26T09:10:16.073Z,17.67
2018-09-26T09:11:16.110Z,18.33
2018-09-26T09:12:16.096Z,18.47
2018-09-26T09:13:16.100Z,18.95
2018-09-26T09:14:16.152Z,18.15
2018-09-26T09:15:16.112Z,17.78
2018-09-26T09:16:16.123Z,18.46
2018-09-26T09:17:16.142Z,18.65
2018-09-26T09:18:16.138Z,18.52
2018-09-26T09:19:16.149Z,18.50
2018-09-26T09:20:16.188Z,19.24
2018-09-26T09:21:16.162Z,19.53
2018-09-26T09:22:16.166Z,19.15
2018-09-26T09:23:16.176Z,19.06
2018-09-26T09:24:16.210Z,19.31
2018-09-26T09:25:16.196Z,19.17
2018-09-26T09:26:16.229Z,18.19
2018-09-26T09:27:16.270Z,17.64
2018-09-26T09:28:16.231Z,17.82
2018-09-26T09:29:16.223Z,18.39
2018-09-26T09:30:16.233Z,18.65
2018-09-26T09:31:16.257Z,18.84
2018-09-26T09:32:16.279Z,19.08
2018-09-26T09:33:16.265Z,19.63
2018-09-26T09:34:16.264Z,19.47
2018-09-26T09:35:16.275Z,19.75
2018-09-26T09:36:16.276Z,19.38
2018-09-26T09:37:16.298Z,19.48
2018-09-26T09:38:16.334Z,20.20
2018-09-26T09:39:16.308Z,20.72
2018-09-26T09:40:16.313Z,20.06
2018-09-26T09:41:16.324Z,19.31
2018-09-26T09:42:16.330Z,20.18
2018-09-26T09:43:16.339Z,20.80
2018-09-26T09:44:16.414Z,20.62
2018-09-26T09:45:16.355Z,20.13
2018-09-26T09:46:16.363Z,20.69
2018-09-26T09:47:16.374Z,19.58
2018-09-26T09:48:16.380Z,19.91
2018-09-26T09:49:16.392Z,21.17
2018-09-26T09:50:16.416Z,22.46
2018-09-26T09:51:16.411Z,21.98
2018-09-26T09:52:16.418Z,22.27
2018-09-26T09:53:16.444Z,22.20
2018-09-26T09:54:16.435Z,23.61
2018-09-26T09:55:16.447Z,22.31
2018-09-26T09:56:16.563Z,23.02
2018-09-26T09:57:16.465Z,23.86
2018-09-26T09:58:16.472Z,23.89
2018-09-26T09:59:16.493Z,23.85
2018-09-26T10:00:16.490Z,24.63
2018-09-26T10:01:16.501Z,25.16
2018-09-26T10:02:16.579Z,25.72
2018-09-26T10:03:16.527Z,25.24
2018-09-26T10:04:16.531Z,24.85
2018-09-26T10:05:16.544Z,23.09
2018-09-26T10:06:16.553Z,22.57
2018-09-26T10:07:16.556Z,22.35
2018-09-26T10:08:16.605Z,22.52
2018-09-26T10:09:16.577Z,23.50
2018-09-26T10:10:16.599Z,23.14
2018-09-26T10:11:16.600Z,22.59
2018-09-26T10:12:16.609Z,23.39
2018-09-26T10:13:16.618Z,23.26
2018-09-26T10:14:16.698Z,23.31
2018-09-26T10:15:16.636Z,22.90
2018-09-26T10:16:16.651Z,22.34
2018-09-26T10:17:16.660Z,21.98
2018-09-26T10:18:16.668Z,22.29
2018-09-26T10:19:16.680Z,22.86
2018-09-26T10:20:16.743Z,22.44
2018-09-26T10:21:16.696Z,21.88
2018-09-26T10:22:16.707Z,22.13
2018-09-26T10:23:16.720Z,22.31
2018-09-26T10:24:16.735Z,22.29
2018-09-26T10:25:16.798Z,22.99
2018-09-26T10:26:16.807Z,23.55
2018-09-26T10:27:16.762Z,23.79
2018-09-26T10:28:16.768Z,24.61
2018-09-26T10:29:16.780Z,24.98
2018-09-26T10:30:16.786Z,24.08
2018-09-26T10:31:16.802Z,24.32
2018-09-26T10:32:16.811Z,25.15
2018-09-26T10:33:16.814Z,24.16
2018-09-26T10:34:16.826Z,22.97
2018-09-26T10:35:16.838Z,23.11
2018-09-26T10:36:16.846Z,22.54
2018-09-26T10:37:16.856Z,22.64
2018-09-26T10:38:16.904Z,22.14
2018-09-26T10:39:16.877Z,22.64
2018-09-26T10:40:16.883Z,23.42
2018-09-26T10:41:16.895Z,23.45
2018-09-26T10:42:16.933Z,23.92
2018-09-26T10:43:16.922Z,23.65
2018-09-26T10:44:16.941Z,24.26
2018-09-26T10:45:16.932Z,24.47
2018-09-26T10:46:16.943Z,24.61
2018-09-26T10:47:16.956Z,24.31
2018-09-26T10:48:16.962Z,23.83
2018-09-26T10:49:16.974Z,24.19
2018-09-26T10:50:17.008Z,23.71
2018-09-26T10:51:16.994Z,22.84
2018-09-26T10:52:17.012Z,22.49
2018-09-26T10:53:17.014Z,22.84
2018-09-26T10:54:17.020Z,22.04
2018-09-26T10:55:17.036Z,22.69
2018-09-26T10:56:17.090Z,23.40
2018-09-26T10:57:17.052Z,22.69
2018-09-26T10:58:17.065Z,23.11
2018-09-26T10:59:17.079Z,23.85
2018-09-26T11:00:17.079Z,23.92
2018-09-26T11:01:17.090Z,24.19
2018-09-26T11:02:17.150Z,23.24
2018-09-26T11:03:17.106Z,23.76
2018-09-26T11:04:17.157Z,24.45
2018-09-26T11:05:17.125Z,25.07
2018-09-26T11:06:17.138Z,25.44
2018-09-26T11:07:17.142Z,25.30
2018-09-26T11:08:17.190Z,25.57
2018-09-26T11:09:17.164Z,25.89
2018-09-26T11:10:17.218Z,25.31
2018-09-26T11:11:17.181Z,25.27
2018-09-26T11:12:17.191Z,25.54
2018-09-26T11:13:17.207Z,26.20
2018-09-26T11:14:17.288Z,26.52
2018-09-26T11:15:17.268Z,26.86
2018-09-26T11:16:17.288Z,26.87
2018-09-26T11:17:17.241Z,26.54
2018-09-26T11:18:17.248Z,26.72
2018-09-26T11:19:17.261Z,27.02
2018-09-26T11:20:17.367Z,26.49
2018-09-26T11:21:17.290Z,26.50
2018-09-26T11:22:17.327Z,26.35
2018-09-26T11:23:17.304Z,25.50
2018-09-26T11:24:17.317Z,24.45
2018-09-26T11:25:17.329Z,24.87
2018-09-26T11:26:17.497Z,25.65
2018-09-26T11:27:17.338Z,25.68
2018-09-26T11:28:17.430Z,25.89
2018-09-26T11:29:17.364Z,25.91
2018-09-26T11:30:17.380Z,24.80
2018-09-26T11:31:17.389Z,24.47
2018-09-26T11:32:17.438Z,23.95
2018-09-26T11:33:17.481Z,23.61
2018-09-26T11:34:17.466Z,22.68
2018-09-26T11:35:17.451Z,23.14
2018-09-26T11:36:17.442Z,23.57
2018-09-26T11:37:17.447Z,24.05
2018-09-26T11:38:17.506Z,24.31
2018-09-26T11:39:17.467Z,23.76
2018-09-26T11:40:17.575Z,23.50
2018-09-26T11:41:17.484Z,23.47
2018-09-26T11:42:17.495Z,23.76
2018-09-26T11:43:17.514Z,24.37
2018-09-26T11:44:17.529Z,24.42
2018-09-26T11:45:17.528Z,24.57
2018-09-26T11:46:17.545Z,25.05
2018-09-26T11:47:17.541Z,24.31
2018-09-26T11:48:17.565Z,24.39
2018-09-26T11:49:17.558Z,24.22
2018-09-26T11:50:17.581Z,23.57
2018-09-26T11:51:17.577Z,24.07
2018-09-26T11:52:17.668Z,23.14
2018-09-26T11:53:17.604Z,23.67
2018-09-26T11:54:17.606Z,23.67
2018-09-26T11:55:17.612Z,23.34
2018-09-26T11:56:17.630Z,22.82
2018-09-26T11:57:17.628Z,22.83
2018-09-26T11:58:17.657Z,23.22
2018-09-26T11:59:17.646Z,23.80
2018-09-26T12:00:17.652Z,24.80
2018-09-26T12:01:17.659Z,25.07
2018-09-26T12:02:17.750Z,25.57
2018-09-26T12:03:17.674Z,26.01
2018-09-26T12:04:17.748Z,26.29
2018-09-26T12:05:17.693Z,26.44
2018-09-26T12:06:17.706Z,26.98
2018-09-26T12:07:17.730Z,27.09
2018-09-26T12:08:17.780Z,26.54
2018-09-26T12:09:17.723Z,26.02
2018-09-26T12:10:17.749Z,25.30
2018-09-26T12:11:17.739Z,24.49
2018-09-26T12:12:17.786Z,23.62
2018-09-26T12:13:17.756Z,22.82
2018-09-26T12:14:17.764Z,22.23
2018-09-26T12:15:17.780Z,22.02
2018-09-26T12:16:17.811Z,21.83
2018-09-26T12:17:17.815Z,21.59
2018-09-26T12:18:17.829Z,21.29
2018-09-26T12:19:17.855Z,21.42
2018-09-26T12:20:17.814Z,20.84
2018-09-26T12:21:30.252Z,20.95
2018-09-26T12:22:17.942Z,20.72
2018-09-26T12:23:17.830Z,20.49
2018-09-26T12:24:17.900Z,20.64
2018-09-26T12:25:17.876Z,20.34
2018-09-26T12:26:17.843Z,20.42
2018-09-26T12:27:17.848Z,20.31
2018-09-26T12:28:17.974Z,20.27
2018-09-26T12:29:17.857Z,20.02
2018-09-26T12:30:17.927Z,20.16
2018-09-26T12:31:17.940Z,19.91
2018-09-26T12:32:17.865Z,19.91
2018-09-26T12:33:17.874Z,19.72
2018-09-26T12:34:17.991Z,19.42
2018-09-26T12:35:17.878Z,19.25
2018-09-26T12:36:17.888Z,19.55
2018-09-26T12:37:17.880Z,19.69
2018-09-26T12:38:17.887Z,19.60
2018-09-26T12:39:17.880Z,19.43
2018-09-26T12:40:17.964Z,19.42
2018-09-26T12:41:17.884Z,19.32
2018-09-26T12:42:17.898Z,19.25
2018-09-26T12:43:17.983Z,19.36
2018-09-26T12:44:17.887Z,19.39
2018-09-26T12:45:17.889Z,19.39
2018-09-26T12:46:17.903Z,19.50
2018-09-26T12:47:17.926Z,19.32
2018-09-26T12:48:17.933Z,19.23
2018-09-26T12:49:17.892Z,19.35
2018-09-26T12:50:17.891Z,19.38
2018-09-26T12:51:17.891Z,19.28
2018-09-26T12:52:17.907Z,19.08
2018-09-26T12:53:17.891Z,18.95
2018-09-26T12:54:17.896Z,19.02
2018-09-26T12:55:17.888Z,18.82
2018-09-26T12:56:17.891Z,18.49
2018-09-26T12:57:17.893Z,18.65
2018-09-26T12:58:17.911Z,18.40
2018-09-26T12:59:17.887Z,18.50
2018-09-26T13:00:17.946Z,18.62
2018-09-26T13:01:17.885Z,18.58
2018-09-26T13:02:17.957Z,18.67
2018-09-26T13:03:17.887Z,18.49
2018-09-26T13:04:17.921Z,18.50
2018-09-26T13:05:17.883Z,18.47
2018-09-26T13:06:17.962Z,18.43
2018-09-26T13:07:17.884Z,18.40
2018-09-26T13:08:17.886Z,18.47
2018-09-26T13:09:17.878Z,18.36
2018-09-26T13:10:17.911Z,18.40
2018-09-26T13:11:17.872Z,18.40
2018-09-26T13:12:17.934Z,18.31
2018-09-26T13:13:17.872Z,18.33
2018-09-26T13:14:17.894Z,18.37
2018-09-26T13:15:17.868Z,18.28
2018-09-26T13:16:17.929Z,18.29
2018-09-26T13:17:17.868Z,18.31
2018-09-26T13:18:17.898Z,18.37
2018-09-26T13:19:17.862Z,18.22
2018-09-26T13:20:17.926Z,18.15
2018-09-26T13:21:17.863Z,18.24
2018-09-26T13:22:17.911Z,18.22
2018-09-26T13:23:17.855Z,18.13
2018-09-26T13:24:17.896Z,18.18
2018-09-26T13:25:17.911Z,18.15
2018-09-26T13:26:17.880Z,18.22
2018-09-26T13:27:17.848Z,18.24
2018-09-26T13:28:17.854Z,18.17
2018-09-26T13:29:17.845Z,18.00
2018-09-26T13:30:17.912Z,18.18
2018-09-26T13:31:17.841Z,17.89
2018-09-26T13:32:17.899Z,18.00
2018-09-26T13:33:17.839Z,18.18
2018-09-26T13:34:17.877Z,18.04
2018-09-26T13:35:17.831Z,18.17
2018-09-26T13:36:17.855Z,18.00
2018-09-26T13:37:17.841Z,18.06
2018-09-26T13:38:17.867Z,18.04
2018-09-26T13:39:17.875Z,18.02
2018-09-26T13:40:17.858Z,18.00
2018-09-26T13:41:17.820Z,18.12
2018-09-26T13:42:17.850Z,18.22
2018-09-26T13:43:17.818Z,18.17
2018-09-26T13:44:17.841Z,18.10
2018-09-26T13:45:18.073Z,18.24
2018-09-26T13:46:17.851Z,18.24
2018-09-26T13:47:17.807Z,18.22
2018-09-26T13:48:17.855Z,18.13
2018-09-26T13:49:17.804Z,18.22
2018-09-26T13:50:17.813Z,18.24
2018-09-26T13:51:17.800Z,18.27
2018-09-26T13:52:17.849Z,18.29
2018-09-26T13:53:17.796Z,18.25
2018-09-26T13:54:17.839Z,18.25
2018-09-26T13:55:17.789Z,18.29
2018-09-26T13:56:17.845Z,18.25
2018-09-26T13:57:17.785Z,18.21
2018-09-26T13:58:17.818Z,18.21
2018-09-26T13:59:17.778Z,18.10
2018-09-26T14:00:17.845Z,18.10
2018-09-26T14:01:17.794Z,18.02
2018-09-26T14:02:17.819Z,18.00
2018-09-26T14:03:17.773Z,18.00
2018-09-26T14:04:17.834Z,18.13
2018-09-26T14:05:17.766Z,18.22
2018-09-26T14:06:17.763Z,18.24
2018-09-26T14:07:17.760Z,18.15
2018-09-26T14:08:17.759Z,18.02
2018-09-26T14:09:17.757Z,18.00
2018-09-26T14:10:17.755Z,18.07
2018-09-26T14:11:17.754Z,18.09
2018-09-26T14:12:17.765Z,17.95
2018-09-26T14:13:17.747Z,18.18
2018-09-26T14:14:17.832Z,18.18
2018-09-26T14:15:17.745Z,18.29
2018-09-26T14:16:17.751Z,18.37
2018-09-26T14:17:17.776Z,18.42
2018-09-26T14:18:17.783Z,18.40
2018-09-26T14:19:17.735Z,18.49
2018-09-26T14:20:17.751Z,18.52
2018-09-26T14:21:17.730Z,18.47
2018-09-26T14:22:17.748Z,18.54
2018-09-26T14:23:17.869Z,18.52
2018-09-26T14:24:17.728Z,18.34
2018-09-26T14:25:17.718Z,18.33
2018-09-26T14:26:17.749Z,18.36
2018-09-26T14:27:17.715Z,18.43
2018-09-26T14:28:17.781Z,18.37
2018-09-26T14:29:17.781Z,18.34
2018-09-26T14:30:17.753Z,18.43
2018-09-26T14:31:17.710Z,18.31
2018-09-26T14:32:17.755Z,18.34
2018-09-26T14:33:17.765Z,18.43
2018-09-26T14:34:17.703Z,18.40
2018-09-26T14:35:17.701Z,18.36
2018-09-26T14:36:17.798Z,18.42
2018-09-26T14:37:17.695Z,18.40
2018-09-26T14:38:17.776Z,18.43
2018-09-26T14:39:17.784Z,18.40
2018-09-26T14:40:17.689Z,18.40
2018-09-26T14:41:17.719Z,18.36
2018-09-26T14:42:17.681Z,18.36
2018-09-26T14:43:17.682Z,18.39
2018-09-26T14:44:17.719Z,18.42
2018-09-26T14:45:17.740Z,18.43
2018-09-26T14:46:17.676Z,18.34
2018-09-26T14:47:17.682Z,18.44
2018-09-26T14:48:17.666Z,18.47
2018-09-26T14:49:17.821Z,18.29
2018-09-26T14:50:17.723Z,18.33
2018-09-26T14:51:17.662Z,18.28
2018-09-26T14:52:17.659Z,18.22
2018-09-26T14:53:17.723Z,18.22
2018-09-26T14:54:17.657Z,18.31
2018-09-26T14:55:17.675Z,18.31
2018-09-26T14:56:17.682Z,18.40
2018-09-26T14:57:17.713Z,18.46
2018-09-26T14:58:17.761Z,18.44
2018-09-26T14:59:17.644Z,18.37
2018-09-26T15:00:17.678Z,18.33
2018-09-26T15:01:17.647Z,18.29
2018-09-26T15:02:17.687Z,18.36
2018-09-26T15:03:17.634Z,18.25
2018-09-26T15:04:17.679Z,18.37
2018-09-26T15:05:17.634Z,18.42
2018-09-26T15:06:17.669Z,18.42
2018-09-26T15:07:17.629Z,18.39
2018-09-26T15:08:17.709Z,18.33
2018-09-26T15:09:17.620Z,18.36
2018-09-26T15:10:17.703Z,18.21
2018-09-26T15:11:17.624Z,18.31
2018-09-26T15:12:17.653Z,18.37
2018-09-26T15:13:17.620Z,18.44
2018-09-26T15:14:17.659Z,18.28
2018-09-26T15:15:17.606Z,18.29
2018-09-26T15:16:17.660Z,18.33
2018-09-26T15:17:17.604Z,18.28
2018-09-26T15:18:17.616Z,18.28
2018-09-26T15:19:17.591Z,18.36
2018-09-26T15:20:17.615Z,18.21
2018-09-26T15:21:17.599Z,18.22
2018-09-26T15:22:17.628Z,18.24
2018-09-26T15:23:17.603Z,18.15
2018-09-26T15:24:17.683Z,18.21
2018-09-26T15:25:17.644Z,18.24
2018-09-26T15:26:17.626Z,18.12
2018-09-26T15:27:17.585Z,18.02
2018-09-26T15:28:17.659Z,18.12